Tropical Cyclones
[Index]
Main Index Home Page Stock Weather Photos Extreme Storms Discussion Storm News and Storm Chasing Reports Tropical Cyclones / Hurricanes / Typhoons Weather Data and Links Wild Fires / Bushfires Weather Observation Techniques Weather Picture Catalogue Tornado Pictures and Reports Stock Video Footage and DVDs for sale
Season 2008-2009 Tropical Cyclone GAEL Track Map
Season 2008-2009 Summaries (Operational Data): [AU] [SIO] [SPAC] [SH]
<<- Previous TC | 2008-2009 Season | Next TC ->>

click for intensity scale information  Lat/long Grid: Show Hide

 Date Labels: Show Hide

Operational Tropical Cyclone Data : JTWC Advisories

Name: GAEL
Number: 0913

01 Feb 2009 12:00 UTC to 12 Feb 2009 18:00 UTC

    date/time    lat    long     hPa   cat  kts
2009-02-01 12   15.1    70.4    1007         20          
2009-02-01 20   15.1    69.4                             
2009-02-01 23   15.5    69.1                             
2009-02-02 06   15.6    68.3    1005         20          
2009-02-02 12   16.1    67.2    1003         20          
2009-02-02 18   16.3    66.4    1000         25          
2009-02-03 00   16.5    65.9     998         30          
2009-02-03 06   17.2    64.9     995    1    35          
2009-02-03 12   17.6    63.3     997    1    35          
2009-02-03 18   17.7    62.6     997    1    35          
2009-02-04 00   17.8    61.9     995    1    35          
2009-02-04 06   17.8    60.6     995    1    35          
2009-02-04 12   17.9    59.8     992    1    40          
2009-02-04 18   17.9    59.0     988    1    45          
2009-02-05 00   18.1    58.5     987    1    45          
2009-02-05 06   18.2    57.4     987    1    45          
2009-02-05 12   18.3    56.0     980    2    55          
2009-02-05 18   18.3    55.1     970    3    65          
2009-02-06 00   18.5    54.3     960    3    70          
2009-02-06 06   18.4    53.1     955    3    75          
2009-02-06 12   18.6    52.5     950    3    85          
2009-02-06 18   19.2    52.3     941    4    90          
2009-02-07 00   19.5    51.8     941    4    90          
2009-02-07 06   20.0    51.7     934    4    95          
2009-02-07 12   20.6    51.8     940    4    90          
2009-02-07 18   21.2    52.1     940    4    90          
2009-02-08 00   21.9    52.5     940    4    90          
2009-02-08 06   22.9    53.0     940    4    90          
2009-02-08 12   24.3    53.4     950    3    85          
2009-02-08 18   25.1    53.8     955    3    80          
2009-02-09 00   26.6    54.8     940    3    85          
2009-02-09 06   28.2    56.4     950    3    80          
2009-02-09 12   29.5    57.5     965    3    70          
2009-02-09 18   30.9    59.4     970    3    65          
2009-02-10 00   31.4    60.6     975    2    60          
2009-02-10 06   32.2    61.9     980    2    55          
2009-02-10 12   32.3    62.8     993                     
2009-02-10 18   32.0    64.1     993    1    35          
2009-02-11 00   32.4    65.0     995                     
2009-02-11 06   32.5    65.2     997                     
2009-02-11 12   32.5    66.2     998                     
2009-02-11 18   33.4    67.5    1001                     
2009-02-12 00   34.9    67.5    1001                     
2009-02-12 06   37.2    69.0    1003                     
2009-02-12 12   39.7    70.0    1001                     
2009-02-12 18   42.6    72.3    1000                     
Winds are 10-min average.

Tropical cyclone tracks developed by Michael Bath using operational warnings and advisories and Google Maps.


[Australian Severe Weather index] [Copyright Notice] [Email Contacts] [Search This Site] [Privacy Policy]
Document: tropical_cyclone_gael.htm Updated: 28 May 2013